sensor_id;sensor_type;location;lat;lon;timestamp;pressure;altitude;pressure_sealevel;temperature;humidity
37892;BME280;45797;47.466;9.486;2022-12-08T00:02:46;95332.75;;;6.11;70.85
37892;BME280;45797;47.466;9.486;2022-12-08T00:07:47;95333.56;;;6.11;70.50
37892;BME280;45797;47.466;9.486;2022-12-08T00:13:06;95339.72;;;6.10;70.45
37892;BME280;45797;47.466;9.486;2022-12-08T00:18:23;95331.28;;;6.07;70.58
37892;BME280;45797;47.466;9.486;2022-12-08T00:23:40;95327.91;;;6.05;69.97
37892;BME280;45797;47.466;9.486;2022-12-08T00:28:41;95319.47;;;6.01;70.17
37892;BME280;45797;47.466;9.486;2022-12-08T00:33:43;95324.13;;;5.96;70.76
37892;BME280;45797;47.466;9.486;2022-12-08T00:45:14;95305.72;;;5.85;70.84
37892;BME280;45797;47.466;9.486;2022-12-08T00:50:17;95306.38;;;5.88;70.73
37892;BME280;45797;47.466;9.486;2022-12-08T00:55:17;95309.00;;;5.88;70.82
37892;BME280;45797;47.466;9.486;2022-12-08T01:00:18;95305.56;;;5.88;70.66
37892;BME280;45797;47.466;9.486;2022-12-08T01:05:31;95309.44;;;5.81;70.91
37892;BME280;45797;47.466;9.486;2022-12-08T01:10:36;95305.72;;;5.85;70.51
37892;BME280;45797;47.466;9.486;2022-12-08T01:15:48;95312.63;;;5.71;70.77
37892;BME280;45797;47.466;9.486;2022-12-08T01:20:53;95313.72;;;5.67;71.19
37892;BME280;45797;47.466;9.486;2022-12-08T01:25:53;95312.25;;;5.63;71.08
37892;BME280;45797;47.466;9.486;2022-12-08T01:31:02;95307.97;;;5.62;70.89
37892;BME280;45797;47.466;9.486;2022-12-08T01:36:19;95303.63;;;5.63;71.22
37892;BME280;45797;47.466;9.486;2022-12-08T01:47:13;95304.09;;;5.69;71.05
37892;BME280;45797;47.466;9.486;2022-12-08T01:52:56;95301.00;;;5.63;71.20
37892;BME280;45797;47.466;9.486;2022-12-08T01:58:04;95297.84;;;5.72;70.56
37892;BME280;45797;47.466;9.486;2022-12-08T02:03:13;95284.31;;;5.67;70.93
37892;BME280;45797;47.466;9.486;2022-12-08T02:08:16;95282.63;;;5.66;70.73
37892;BME280;45797;47.466;9.486;2022-12-08T02:25:03;95275.56;;;5.68;70.51
37892;BME280;45797;47.466;9.486;2022-12-08T02:30:31;95257.22;;;5.71;70.66
37892;BME280;45797;47.466;9.486;2022-12-08T02:46:39;95243.94;;;5.76;70.91
37892;BME280;45797;47.466;9.486;2022-12-08T02:51:43;95247.38;;;5.76;70.42
37892;BME280;45797;47.466;9.486;2022-12-08T03:02:25;95233.28;;;5.80;70.47
37892;BME280;45797;47.466;9.486;2022-12-08T03:12:56;95220.19;;;5.82;70.44
37892;BME280;45797;47.466;9.486;2022-12-08T03:17:58;95215.00;;;5.82;71.21
37892;BME280;45797;47.466;9.486;2022-12-08T03:23:03;95213.00;;;5.85;70.48
37892;BME280;45797;47.466;9.486;2022-12-08T03:28:30;95205.53;;;5.81;70.66
37892;BME280;45797;47.466;9.486;2022-12-08T03:33:34;95204.38;;;5.85;71.13
37892;BME280;45797;47.466;9.486;2022-12-08T03:38:41;95198.25;;;5.86;70.71
37892;BME280;45797;47.466;9.486;2022-12-08T03:44:06;95188.06;;;5.83;70.12
37892;BME280;45797;47.466;9.486;2022-12-08T03:49:06;95178.31;;;5.86;70.48
37892;BME280;45797;47.466;9.486;2022-12-08T03:54:06;95179.97;;;5.87;70.33
37892;BME280;45797;47.466;9.486;2022-12-08T03:59:09;95176.47;;;5.88;70.78
37892;BME280;45797;47.466;9.486;2022-12-08T04:04:28;95167.06;;;5.86;70.57
37892;BME280;45797;47.466;9.486;2022-12-08T04:09:36;95173.03;;;5.88;70.26
37892;BME280;45797;47.466;9.486;2022-12-08T04:14:38;95163.53;;;5.87;70.40
37892;BME280;45797;47.466;9.486;2022-12-08T04:19:39;95159.59;;;5.81;70.63
37892;BME280;45797;47.466;9.486;2022-12-08T04:24:41;95151.56;;;5.71;70.83
37892;BME280;45797;47.466;9.486;2022-12-08T04:29:44;95150.41;;;5.76;70.60
37892;BME280;45797;47.466;9.486;2022-12-08T04:34:54;95146.72;;;5.80;70.62
37892;BME280;45797;47.466;9.486;2022-12-08T04:39:55;95149.81;;;5.85;70.64
37892;BME280;45797;47.466;9.486;2022-12-08T04:44:59;95151.31;;;5.89;70.15
37892;BME280;45797;47.466;9.486;2022-12-08T04:50:00;95151.31;;;5.89;70.14
37892;BME280;45797;47.466;9.486;2022-12-08T04:55:02;95148.53;;;5.92;70.18
37892;BME280;45797;47.466;9.486;2022-12-08T05:00:05;95140.75;;;5.92;70.37
37892;BME280;45797;47.466;9.486;2022-12-08T05:05:21;95147.97;;;5.87;70.35
37892;BME280;45797;47.466;9.486;2022-12-08T05:10:23;95148.66;;;5.90;70.74
37892;BME280;45797;47.466;9.486;2022-12-08T05:15:24;95145.09;;;5.91;70.71
37892;BME280;45797;47.466;9.486;2022-12-08T05:20:39;95138.50;;;5.86;70.63
37892;BME280;45797;47.466;9.486;2022-12-08T05:25:51;95137.66;;;5.85;70.26
37892;BME280;45797;47.466;9.486;2022-12-08T05:30:53;95135.72;;;5.89;70.08
37892;BME280;45797;47.466;9.486;2022-12-08T05:36:01;95127.38;;;5.84;70.44
37892;BME280;45797;47.466;9.486;2022-12-08T05:41:01;95136.00;;;5.84;70.18
37892;BME280;45797;47.466;9.486;2022-12-08T05:46:10;95129.25;;;5.82;69.90
37892;BME280;45797;47.466;9.486;2022-12-08T05:51:19;95129.09;;;5.70;70.34
37892;BME280;45797;47.466;9.486;2022-12-08T05:56:21;95134.09;;;5.73;70.77
37892;BME280;45797;47.466;9.486;2022-12-08T06:01:24;95133.88;;;5.77;70.45
37892;BME280;45797;47.466;9.486;2022-12-08T06:06:46;95127.34;;;5.71;70.31
37892;BME280;45797;47.466;9.486;2022-12-08T06:11:57;95135.88;;;5.59;70.56
37892;BME280;45797;47.466;9.486;2022-12-08T06:17:01;95130.69;;;5.59;71.02
37892;BME280;45797;47.466;9.486;2022-12-08T06:22:15;95136.00;;;5.57;70.11
37892;BME280;45797;47.466;9.486;2022-12-08T06:27:23;95131.78;;;5.42;71.10
37892;BME280;45797;47.466;9.486;2022-12-08T06:32:36;95139.28;;;5.47;70.43
37892;BME280;45797;47.466;9.486;2022-12-08T06:37:37;95136.28;;;5.53;70.82
37892;BME280;45797;47.466;9.486;2022-12-08T06:42:43;95139.53;;;5.56;70.65
37892;BME280;45797;47.466;9.486;2022-12-08T06:48:01;95143.88;;;5.56;70.49
37892;BME280;45797;47.466;9.486;2022-12-08T06:53:02;95139.34;;;5.59;70.83
37892;BME280;45797;47.466;9.486;2022-12-08T06:58:05;95145.16;;;5.63;70.83
37892;BME280;45797;47.466;9.486;2022-12-08T07:03:19;95146.28;;;5.59;70.63
37892;BME280;45797;47.466;9.486;2022-12-08T07:08:36;95145.28;;;5.61;70.47
37892;BME280;45797;47.466;9.486;2022-12-08T07:13:55;95147.66;;;5.64;70.58
37892;BME280;45797;47.466;9.486;2022-12-08T07:18:59;95151.56;;;5.71;70.24
37892;BME280;45797;47.466;9.486;2022-12-08T07:24:05;95151.41;;;5.60;70.43
37892;BME280;45797;47.466;9.486;2022-12-08T07:29:10;95142.94;;;5.57;70.45
37892;BME280;45797;47.466;9.486;2022-12-08T07:34:12;95144.91;;;5.53;70.50
37892;BME280;45797;47.466;9.486;2022-12-08T07:39:15;95140.44;;;5.55;70.94
37892;BME280;45797;47.466;9.486;2022-12-08T07:44:22;95155.50;;;5.50;70.91
37892;BME280;45797;47.466;9.486;2022-12-08T07:49:23;95151.78;;;5.54;70.76
37892;BME280;45797;47.466;9.486;2022-12-08T07:54:24;95150.81;;;5.69;70.47
37892;BME280;45797;47.466;9.486;2022-12-08T07:59:31;95137.03;;;5.82;69.88
37892;BME280;45797;47.466;9.486;2022-12-08T08:04:35;95135.34;;;5.95;69.86
37892;BME280;45797;47.466;9.486;2022-12-08T08:09:42;95139.75;;;6.07;69.36
37892;BME280;45797;47.466;9.486;2022-12-08T08:15:03;95138.50;;;6.13;69.15
37892;BME280;45797;47.466;9.486;2022-12-08T08:20:06;95142.00;;;6.26;69.67
37892;BME280;45797;47.466;9.486;2022-12-08T08:25:17;95139.19;;;6.29;69.01
37892;BME280;45797;47.466;9.486;2022-12-08T08:30:18;95132.44;;;6.26;69.73
37892;BME280;45797;47.466;9.486;2022-12-08T08:35:25;95141.25;;;6.24;69.29
37892;BME280;45797;47.466;9.486;2022-12-08T08:40:27;95135.63;;;6.17;69.49
37892;BME280;45797;47.466;9.486;2022-12-08T08:45:35;95137.69;;;6.25;69.49
37892;BME280;45797;47.466;9.486;2022-12-08T08:50:35;95136.09;;;6.37;69.25
37892;BME280;45797;47.466;9.486;2022-12-08T08:55:42;95138.25;;;6.43;69.60
37892;BME280;45797;47.466;9.486;2022-12-08T09:00:43;95137.66;;;6.52;69.07
37892;BME280;45797;47.466;9.486;2022-12-08T09:05:43;95137.25;;;6.71;68.82
37892;BME280;45797;47.466;9.486;2022-12-08T09:10:45;95126.53;;;6.88;68.02
37892;BME280;45797;47.466;9.486;2022-12-08T09:15:51;95127.16;;;7.04;68.03
37892;BME280;45797;47.466;9.486;2022-12-08T09:20:52;95124.75;;;6.88;68.37
37892;BME280;45797;47.466;9.486;2022-12-08T09:25:53;95123.63;;;6.93;68.29
37892;BME280;45797;47.466;9.486;2022-12-08T09:30:55;95127.88;;;6.94;68.31
37892;BME280;45797;47.466;9.486;2022-12-08T09:36:01;95123.81;;;6.90;68.71
37892;BME280;45797;47.466;9.486;2022-12-08T09:41:16;95117.56;;;6.79;68.77
37892;BME280;45797;47.466;9.486;2022-12-08T09:46:17;95116.53;;;6.69;69.01
37892;BME280;45797;47.466;9.486;2022-12-08T09:51:26;95110.41;;;6.70;68.93
37892;BME280;45797;47.466;9.486;2022-12-08T09:56:42;95110.81;;;6.77;68.80
37892;BME280;45797;47.466;9.486;2022-12-08T10:02:02;95096.13;;;6.88;68.79
37892;BME280;45797;47.466;9.486;2022-12-08T10:18:11;95070.69;;;7.05;68.87
37892;BME280;45797;47.466;9.486;2022-12-08T10:28:12;95058.47;;;7.31;68.15
37892;BME280;45797;47.466;9.486;2022-12-08T10:33:25;95054.97;;;7.43;67.98
37892;BME280;45797;47.466;9.486;2022-12-08T10:38:34;95047.31;;;7.53;67.74
37892;BME280;45797;47.466;9.486;2022-12-08T10:43:49;95043.38;;;7.71;67.33
37892;BME280;45797;47.466;9.486;2022-12-08T10:49:10;95032.59;;;7.99;66.76
37892;BME280;45797;47.466;9.486;2022-12-08T10:54:32;95017.69;;;8.24;66.58
37892;BME280;45797;47.466;9.486;2022-12-08T10:59:32;95007.53;;;8.43;66.01
37892;BME280;45797;47.466;9.486;2022-12-08T11:04:38;95001.41;;;8.67;65.38
37892;BME280;45797;47.466;9.486;2022-12-08T11:09:39;94994.19;;;8.81;65.58
37892;BME280;45797;47.466;9.486;2022-12-08T11:19:56;94983.06;;;9.23;64.25
37892;BME280;45797;47.466;9.486;2022-12-08T11:30:34;94978.22;;;9.07;64.98
37892;BME280;45797;47.466;9.486;2022-12-08T11:35:42;94973.50;;;8.78;65.78
37892;BME280;45797;47.466;9.486;2022-12-08T11:41:26;94969.38;;;8.53;66.05
37892;BME280;45797;47.466;9.486;2022-12-08T11:46:31;94965.59;;;8.46;66.08
37892;BME280;45797;47.466;9.486;2022-12-08T11:51:45;94960.78;;;8.29;66.62
37892;BME280;45797;47.466;9.486;2022-12-08T11:56:58;94957.56;;;8.03;66.79
37892;BME280;45797;47.466;9.486;2022-12-08T12:02:03;94945.56;;;7.89;66.94
37892;BME280;45797;47.466;9.486;2022-12-08T12:18:33;94942.97;;;7.89;66.55
37892;BME280;45797;47.466;9.486;2022-12-08T12:23:37;94932.31;;;7.92;66.50
37892;BME280;45797;47.466;9.486;2022-12-08T12:29:05;94925.22;;;8.06;65.87
37892;BME280;45797;47.466;9.486;2022-12-08T12:34:47;94927.59;;;8.09;65.25
37892;BME280;45797;47.466;9.486;2022-12-08T12:40:19;94918.81;;;8.21;64.93
37892;BME280;45797;47.466;9.486;2022-12-08T12:45:26;94916.44;;;8.29;64.95
37892;BME280;45797;47.466;9.486;2022-12-08T12:50:42;94919.53;;;8.23;65.20
37892;BME280;45797;47.466;9.486;2022-12-08T12:56:09;94922.63;;;8.06;65.35
37892;BME280;45797;47.466;9.486;2022-12-08T13:06:39;94909.09;;;8.00;64.89
37892;BME280;45797;47.466;9.486;2022-12-08T13:11:55;94901.72;;;7.83;65.46
37892;BME280;45797;47.466;9.486;2022-12-08T13:17:19;94898.72;;;7.65;65.79
37892;BME280;45797;47.466;9.486;2022-12-08T13:22:46;94901.00;;;7.70;65.48
37892;BME280;45797;47.466;9.486;2022-12-08T13:33:38;94889.06;;;8.12;64.70
37892;BME280;45797;47.466;9.486;2022-12-08T13:38:52;94897.34;;;8.28;64.11
37892;BME280;45797;47.466;9.486;2022-12-08T13:44:01;94881.03;;;8.38;63.97
37892;BME280;45797;47.466;9.486;2022-12-08T13:49:16;94888.25;;;8.34;63.90
37892;BME280;45797;47.466;9.486;2022-12-08T13:54:34;94888.22;;;8.12;64.55
37892;BME280;45797;47.466;9.486;2022-12-08T13:59:42;94895.59;;;8.07;64.98
37892;BME280;45797;47.466;9.486;2022-12-08T14:04:43;94901.63;;;7.96;65.26
37892;BME280;45797;47.466;9.486;2022-12-08T14:10:13;94899.22;;;7.93;64.94
37892;BME280;45797;47.466;9.486;2022-12-08T14:15:18;94901.00;;;7.92;64.61
37892;BME280;45797;47.466;9.486;2022-12-08T14:20:28;94900.19;;;7.92;65.00
37892;BME280;45797;47.466;9.486;2022-12-08T14:25:30;94903.47;;;7.71;65.05
37892;BME280;45797;47.466;9.486;2022-12-08T14:30:32;94903.72;;;7.68;64.95
37892;BME280;45797;47.466;9.486;2022-12-08T14:35:39;94903.34;;;7.62;65.49
37892;BME280;45797;47.466;9.486;2022-12-08T14:56:25;94900.63;;;7.28;65.99
37892;BME280;45797;47.466;9.486;2022-12-08T15:01:36;94894.38;;;7.31;65.41
37892;BME280;45797;47.466;9.486;2022-12-08T15:06:59;94901.69;;;7.26;65.42
37892;BME280;45797;47.466;9.486;2022-12-08T15:22:36;94895.88;;;7.22;65.72
37892;BME280;45797;47.466;9.486;2022-12-08T15:27:52;94903.06;;;7.19;65.23
37892;BME280;45797;47.466;9.486;2022-12-08T15:32:54;94889.47;;;7.15;65.34
37892;BME280;45797;47.466;9.486;2022-12-08T15:37:55;94883.75;;;7.10;65.60
37892;BME280;45797;47.466;9.486;2022-12-08T15:42:56;94889.31;;;7.05;65.37
37892;BME280;45797;47.466;9.486;2022-12-08T15:47:59;94885.75;;;7.06;65.83
37892;BME280;45797;47.466;9.486;2022-12-08T15:53:03;94881.59;;;7.04;65.80
37892;BME280;45797;47.466;9.486;2022-12-08T15:58:35;94883.00;;;6.97;65.55
37892;BME280;45797;47.466;9.486;2022-12-08T16:03:46;94880.81;;;6.91;65.47
37892;BME280;45797;47.466;9.486;2022-12-08T16:08:46;94882.59;;;6.90;66.00
37892;BME280;45797;47.466;9.486;2022-12-08T16:13:48;94871.22;;;6.91;65.60
37892;BME280;45797;47.466;9.486;2022-12-08T16:18:52;94866.16;;;6.90;65.61
37892;BME280;45797;47.466;9.486;2022-12-08T16:24:11;94862.94;;;6.86;65.62
37892;BME280;45797;47.466;9.486;2022-12-08T16:29:18;94863.06;;;6.84;65.90
37892;BME280;45797;47.466;9.486;2022-12-08T16:34:22;94859.94;;;6.79;65.28
37892;BME280;45797;47.466;9.486;2022-12-08T16:39:22;94872.47;;;6.74;65.58
37892;BME280;45797;47.466;9.486;2022-12-08T16:44:29;94867.00;;;6.66;65.94
37892;BME280;45797;47.466;9.486;2022-12-08T16:49:31;94869.06;;;6.61;66.04
37892;BME280;45797;47.466;9.486;2022-12-08T16:54:32;94871.19;;;6.56;65.63
37892;BME280;45797;47.466;9.486;2022-12-08T16:59:42;94869.03;;;6.50;65.56
37892;BME280;45797;47.466;9.486;2022-12-08T17:04:46;94863.75;;;6.39;66.07
37892;BME280;45797;47.466;9.486;2022-12-08T17:09:48;94857.78;;;6.25;66.12
37892;BME280;45797;47.466;9.486;2022-12-08T17:15:00;94851.34;;;6.06;65.90
37892;BME280;45797;47.466;9.486;2022-12-08T17:20:02;94853.44;;;5.88;67.17
37892;BME280;45797;47.466;9.486;2022-12-08T17:25:06;94852.81;;;5.71;66.94
37892;BME280;45797;47.466;9.486;2022-12-08T17:30:10;94859.25;;;5.53;67.26
37892;BME280;45797;47.466;9.486;2022-12-08T17:35:15;94856.97;;;5.36;67.04
37892;BME280;45797;47.466;9.486;2022-12-08T17:40:21;94855.38;;;5.21;67.15
37892;BME280;45797;47.466;9.486;2022-12-08T17:45:21;94852.50;;;5.12;67.52
37892;BME280;45797;47.466;9.486;2022-12-08T17:50:23;94849.25;;;5.09;67.62
37892;BME280;45797;47.466;9.486;2022-12-08T17:55:31;94847.25;;;5.00;67.19
37892;BME280;45797;47.466;9.486;2022-12-08T18:00:56;94842.78;;;4.89;67.33
37892;BME280;45797;47.466;9.486;2022-12-08T18:06:11;94844.63;;;4.87;67.32
37892;BME280;45797;47.466;9.486;2022-12-08T18:11:16;94857.63;;;4.87;67.49
37892;BME280;45797;47.466;9.486;2022-12-08T18:16:20;94850.88;;;4.84;67.31
37892;BME280;45797;47.466;9.486;2022-12-08T18:21:21;94852.09;;;4.79;67.53
37892;BME280;45797;47.466;9.486;2022-12-08T18:26:24;94847.28;;;4.73;67.63
37892;BME280;45797;47.466;9.486;2022-12-08T18:31:25;94840.94;;;4.64;68.04
37892;BME280;45797;47.466;9.486;2022-12-08T18:36:31;94840.19;;;4.62;67.46
37892;BME280;45797;47.466;9.486;2022-12-08T18:41:51;94835.00;;;4.62;67.25
37892;BME280;45797;47.466;9.486;2022-12-08T18:47:03;94835.56;;;4.67;67.18
37892;BME280;45797;47.466;9.486;2022-12-08T18:52:11;94830.06;;;4.72;67.48
37892;BME280;45797;47.466;9.486;2022-12-08T18:57:42;94813.50;;;4.74;67.31
37892;BME280;45797;47.466;9.486;2022-12-08T19:02:52;94809.53;;;4.81;66.83
37892;BME280;45797;47.466;9.486;2022-12-08T19:07:53;94802.31;;;4.86;67.29
37892;BME280;45797;47.466;9.486;2022-12-08T19:12:53;94804.78;;;4.88;67.53
37892;BME280;45797;47.466;9.486;2022-12-08T19:18:02;94799.72;;;4.86;66.94
37892;BME280;45797;47.466;9.486;2022-12-08T19:23:04;94787.47;;;4.88;67.73
37892;BME280;45797;47.466;9.486;2022-12-08T19:28:05;94773.88;;;4.85;67.51
37892;BME280;45797;47.466;9.486;2022-12-08T19:33:16;94768.03;;;4.81;67.52
37892;BME280;45797;47.466;9.486;2022-12-08T19:38:17;94774.91;;;4.82;67.59
37892;BME280;45797;47.466;9.486;2022-12-08T19:43:19;94777.59;;;4.81;67.41
37892;BME280;45797;47.466;9.486;2022-12-08T19:48:40;94771.69;;;4.79;67.44
37892;BME280;45797;47.466;9.486;2022-12-08T19:53:42;94776.88;;;4.79;67.98
37892;BME280;45797;47.466;9.486;2022-12-08T19:58:43;94776.75;;;4.80;67.43
37892;BME280;45797;47.466;9.486;2022-12-08T20:03:47;94788.69;;;4.83;67.44
37892;BME280;45797;47.466;9.486;2022-12-08T20:08:48;94801.75;;;4.81;67.13
37892;BME280;45797;47.466;9.486;2022-12-08T20:14:00;94798.56;;;4.78;67.21
37892;BME280;45797;47.466;9.486;2022-12-08T20:19:02;94798.16;;;4.84;67.55
37892;BME280;45797;47.466;9.486;2022-12-08T20:24:15;94797.41;;;4.82;66.48
37892;BME280;45797;47.466;9.486;2022-12-08T20:29:17;94782.28;;;4.88;66.83
37892;BME280;45797;47.466;9.486;2022-12-08T20:34:21;94784.59;;;4.93;66.84
37892;BME280;45797;47.466;9.486;2022-12-08T20:39:22;94798.56;;;4.91;66.99
37892;BME280;45797;47.466;9.486;2022-12-08T20:44:23;94778.66;;;4.91;67.07
37892;BME280;45797;47.466;9.486;2022-12-08T20:49:25;94761.25;;;4.93;66.58
37892;BME280;45797;47.466;9.486;2022-12-08T20:54:25;94778.47;;;4.94;67.16
37892;BME280;45797;47.466;9.486;2022-12-08T20:59:27;94771.41;;;4.96;66.98
37892;BME280;45797;47.466;9.486;2022-12-08T21:04:27;94777.19;;;5.00;66.69
37892;BME280;45797;47.466;9.486;2022-12-08T21:09:28;94765.59;;;5.05;66.79
37892;BME280;45797;47.466;9.486;2022-12-08T21:14:31;94768.91;;;5.07;66.79
37892;BME280;45797;47.466;9.486;2022-12-08T21:19:31;94774.31;;;5.04;66.88
37892;BME280;45797;47.466;9.486;2022-12-08T21:24:39;94759.47;;;5.06;67.52
37892;BME280;45797;47.466;9.486;2022-12-08T21:29:40;94753.44;;;5.06;67.08
37892;BME280;45797;47.466;9.486;2022-12-08T21:34:41;94753.56;;;5.04;66.81
37892;BME280;45797;47.466;9.486;2022-12-08T21:39:44;94737.16;;;5.04;66.84
37892;BME280;45797;47.466;9.486;2022-12-08T21:44:46;94748.38;;;5.04;66.89
37892;BME280;45797;47.466;9.486;2022-12-08T21:56:08;94735.28;;;4.93;67.04
37892;BME280;45797;47.466;9.486;2022-12-08T22:07:32;94738.19;;;4.88;67.09
37892;BME280;45797;47.466;9.486;2022-12-08T22:12:45;94735.47;;;4.90;67.17
37892;BME280;45797;47.466;9.486;2022-12-08T22:17:55;94740.50;;;4.93;66.77
37892;BME280;45797;47.466;9.486;2022-12-08T22:22:56;94725.63;;;4.95;67.28
37892;BME280;45797;47.466;9.486;2022-12-08T22:27:57;94723.06;;;4.95;67.07
37892;BME280;45797;47.466;9.486;2022-12-08T22:32:58;94719.63;;;4.95;67.21
37892;BME280;45797;47.466;9.486;2022-12-08T22:38:06;94707.47;;;4.95;67.21
37892;BME280;45797;47.466;9.486;2022-12-08T22:43:06;94704.06;;;4.95;67.15
37892;BME280;45797;47.466;9.486;2022-12-08T22:48:08;94695.00;;;5.00;66.36
37892;BME280;45797;47.466;9.486;2022-12-08T22:53:17;94696.78;;;5.00;67.04
37892;BME280;45797;47.466;9.486;2022-12-08T22:58:23;94687.13;;;5.02;66.93
37892;BME280;45797;47.466;9.486;2022-12-08T23:03:23;94689.63;;;5.03;67.25
37892;BME280;45797;47.466;9.486;2022-12-08T23:08:26;94676.56;;;5.05;66.73
37892;BME280;45797;47.466;9.486;2022-12-08T23:13:28;94673.13;;;5.04;67.14
37892;BME280;45797;47.466;9.486;2022-12-08T23:18:29;94688.59;;;5.06;66.45
37892;BME280;45797;47.466;9.486;2022-12-08T23:23:33;94675.09;;;5.13;67.12
37892;BME280;45797;47.466;9.486;2022-12-08T23:28:35;94664.25;;;5.20;66.79
37892;BME280;45797;47.466;9.486;2022-12-08T23:33:37;94647.88;;;5.19;66.67
37892;BME280;45797;47.466;9.486;2022-12-08T23:38:38;94646.75;;;5.23;66.71
37892;BME280;45797;47.466;9.486;2022-12-08T23:43:50;94631.06;;;5.25;66.47
37892;BME280;45797;47.466;9.486;2022-12-08T23:48:51;94629.28;;;5.25;67.06
37892;BME280;45797;47.466;9.486;2022-12-08T23:53:52;94644.75;;;5.27;66.62
37892;BME280;45797;47.466;9.486;2022-12-08T23:58:52;94642.97;;;5.27;66.74
